TAF LECH
AMD LECH 081831Z 0818/0918 30010KT 9999 FEW040 TX17/0912Z TN06/0906Z PROB40 TEMPO 0818/0902 29018G30KT BECMG 0904/0906 VRB04KT=
METAR LECH
LECH 082130Z AUTO 30021G32KT 270V330 CAVOK 09/M04 Q1012=
LECH 082100Z AUTO 30018G31KT 270V330 CAVOK 09/M03 Q1012=
LECH 082030Z AUTO 29020G33KT 260V330 CAVOK 10/M04 Q1012=
LECH 082000Z AUTO 29020G30KT 260V330 CAVOK 10/M03 Q1012=
LECH 081930Z AUTO 29018G28KT 250V330 CAVOK 09/M03 Q1012=
WC LECH
WS LECH
WV LECH